createdAt,value
2019-05-03T00:02:26.894Z,18.83
2019-05-03T00:05:21.968Z,18.87
2019-05-03T00:07:56.054Z,17.60
2019-05-03T00:10:26.811Z,18.07
2019-05-03T00:12:57.861Z,17.40
2019-05-03T00:15:35.829Z,17.33
2019-05-03T00:18:06.658Z,16.20
2019-05-03T00:20:37.973Z,16.50
2019-05-03T00:23:08.726Z,16.57
2019-05-03T00:25:39.556Z,16.20
2019-05-03T00:28:10.315Z,16.43
2019-05-03T00:30:42.328Z,16.63
2019-05-03T00:33:13.593Z,16.20
2019-05-03T00:36:03.418Z,15.87
2019-05-03T00:38:35.886Z,16.13
2019-05-03T00:41:06.703Z,15.17
2019-05-03T00:43:37.571Z,16.00
2019-05-03T00:46:08.398Z,14.63
2019-05-03T00:48:39.399Z,15.23
2019-05-03T00:51:11.764Z,16.00
2019-05-03T00:53:42.592Z,14.97
2019-05-03T00:56:13.733Z,15.33
2019-05-03T00:58:52.942Z,15.13
2019-05-03T01:01:24.134Z,15.33
2019-05-03T01:03:55.419Z,15.00
2019-05-03T01:06:26.509Z,15.10
2019-05-03T01:08:57.392Z,15.47
2019-05-03T01:11:28.487Z,15.60
2019-05-03T01:13:59.274Z,15.50
2019-05-03T01:16:31.522Z,16.30
2019-05-03T01:19:03.345Z,14.90
2019-05-03T01:21:34.387Z,15.13
2019-05-03T01:24:05.510Z,15.20
2019-05-03T01:26:36.288Z,14.73
2019-05-03T01:29:07.623Z,14.87
2019-05-03T01:31:38.900Z,16.03
2019-05-03T01:34:09.926Z,15.60
2019-05-03T01:36:42.609Z,15.87
2019-05-03T01:39:14.421Z,16.33
2019-05-03T01:41:45.435Z,16.40
2019-05-03T01:44:16.222Z,15.53
2019-05-03T01:46:48.169Z,15.30
2019-05-03T01:49:27.892Z,15.47
2019-05-03T01:52:22.204Z,15.70
2019-05-03T01:54:53.481Z,15.33
2019-05-03T01:57:24.441Z,15.10
2019-05-03T01:59:55.229Z,15.30
2019-05-03T02:02:46.574Z,15.67
2019-05-03T02:05:34.483Z,15.83
2019-05-03T02:08:05.341Z,16.27
2019-05-03T02:10:36.817Z,15.73
2019-05-03T02:13:07.685Z,16.03
2019-05-03T02:15:38.875Z,16.53
2019-05-03T02:18:12.960Z,16.23
2019-05-03T02:20:42.152Z,15.70
2019-05-03T02:23:12.918Z,15.93
2019-05-03T02:25:55.572Z,15.13
2019-05-03T02:28:17.391Z,16.63
2019-05-03T02:30:48.147Z,16.13
2019-05-03T02:33:18.970Z,16.40
2019-05-03T02:35:49.957Z,17.70
2019-05-03T02:38:23.322Z,16.93
2019-05-03T02:40:53.838Z,17.13
2019-05-03T02:43:38.021Z,17.07
2019-05-03T02:46:28.077Z,18.27
2019-05-03T02:49:11.244Z,19.43
2019-05-03T02:51:42.475Z,19.93
2019-05-03T02:54:15.629Z,18.87
2019-05-03T02:56:47.678Z,19.43
2019-05-03T02:59:18.509Z,18.17
2019-05-03T03:01:49.329Z,18.07
2019-05-03T03:04:20.166Z,18.97
2019-05-03T03:06:55.468Z,18.67
2019-05-03T03:09:26.131Z,19.30
2019-05-03T03:11:58.725Z,20.67
2019-05-03T03:14:31.001Z,19.43
2019-05-03T03:17:06.427Z,18.47
2019-05-03T03:19:36.518Z,18.20
2019-05-03T03:22:10.767Z,19.83
2019-05-03T03:24:45.788Z,18.63
2019-05-03T03:27:20.099Z,19.20
2019-05-03T03:29:55.369Z,19.30
2019-05-03T03:32:37.807Z,19.10
2019-05-03T03:35:20.215Z,19.73
2019-05-03T03:37:46.533Z,18.67
2019-05-03T03:40:18.650Z,19.87
2019-05-03T03:42:49.885Z,19.23
2019-05-03T03:45:20.787Z,19.37
2019-05-03T03:47:56.351Z,19.83
2019-05-03T03:50:27.982Z,19.70
2019-05-03T03:52:59.586Z,20.03
2019-05-03T03:55:32.156Z,19.30
2019-05-03T03:58:06.200Z,20.17
2019-05-03T04:00:36.590Z,17.93
2019-05-03T04:03:07.505Z,18.57
2019-05-03T04:05:38.417Z,16.67
2019-05-03T04:08:09.238Z,17.27
2019-05-03T04:10:40.220Z,17.10
2019-05-03T04:13:15.730Z,16.80
2019-05-03T04:16:05.385Z,17.57
2019-05-03T04:18:49.503Z,18.70
2019-05-03T04:21:20.805Z,17.37
2019-05-03T04:23:51.899Z,17.20
2019-05-03T04:26:29.457Z,16.83
2019-05-03T04:28:56.724Z,17.33
2019-05-03T04:31:27.950Z,17.43
2019-05-03T04:33:58.954Z,17.50
2019-05-03T04:36:29.702Z,16.60
2019-05-03T04:39:00.701Z,16.70
2019-05-03T04:41:35.554Z,16.87
2019-05-03T04:44:06.459Z,16.90
2019-05-03T04:46:37.571Z,16.23
2019-05-03T04:49:08.320Z,16.23
2019-05-03T04:51:39.290Z,15.83
2019-05-03T04:54:37.868Z,16.33
2019-05-03T04:57:08.838Z,16.10
2019-05-03T04:59:39.920Z,16.07
2019-05-03T05:02:10.978Z,17.87
2019-05-03T05:04:41.737Z,18.20
2019-05-03T05:07:15.268Z,18.13
2019-05-03T05:09:45.548Z,18.57
2019-05-03T05:12:16.827Z,18.80
2019-05-03T05:14:47.890Z,18.67
2019-05-03T05:17:27.986Z,18.87
2019-05-03T05:20:08.514Z,18.23
2019-05-03T05:22:40.018Z,18.63
2019-05-03T05:25:14.928Z,19.33
2019-05-03T05:28:04.753Z,18.47
2019-05-03T05:30:35.565Z,17.80
2019-05-03T05:33:08.898Z,19.33
2019-05-03T05:35:40.318Z,18.37
2019-05-03T05:38:11.298Z,17.83
2019-05-03T05:40:42.052Z,18.90
2019-05-03T05:43:15.124Z,19.63
2019-05-03T05:45:46.083Z,17.93
2019-05-03T05:48:24.500Z,19.40
2019-05-03T05:50:55.328Z,20.03
2019-05-03T05:53:26.481Z,20.27
2019-05-03T05:56:22.323Z,19.43
2019-05-03T05:59:06.225Z,18.43
2019-05-03T06:01:48.313Z,18.53
2019-05-03T06:04:19.056Z,19.30
2019-05-03T06:07:15.077Z,18.47
2019-05-03T06:09:55.581Z,18.87
2019-05-03T06:12:32.945Z,18.27
2019-05-03T06:15:08.693Z,19.37
2019-05-03T06:17:50.532Z,19.17
2019-05-03T06:20:31.145Z,18.03
2019-05-03T06:23:09.158Z,18.07
2019-05-03T06:25:42.191Z,17.97
2019-05-03T06:28:20.984Z,17.17
2019-05-03T06:31:14.900Z,17.47
2019-05-03T06:33:46.704Z,17.30
2019-05-03T06:36:36.439Z,17.60
2019-05-03T06:39:26.338Z,18.27
2019-05-03T06:42:19.149Z,17.00
2019-05-03T06:45:10.210Z,16.67
2019-05-03T06:47:40.283Z,17.27
2019-05-03T06:50:14.342Z,16.47
2019-05-03T06:52:45.156Z,17.47
2019-05-03T06:55:15.989Z,17.20
2019-05-03T06:57:49.499Z,16.03
2019-05-03T07:00:30.682Z,16.67
2019-05-03T07:03:15.190Z,17.07
2019-05-03T07:06:34.521Z,17.00
2019-05-03T07:09:18.350Z,14.73
2019-05-03T07:11:50.078Z,15.37
2019-05-03T07:14:21.082Z,14.53
2019-05-03T07:16:51.873Z,14.90
2019-05-03T07:19:24.868Z,14.40
2019-05-03T07:21:55.555Z,14.00
2019-05-03T07:24:26.286Z,14.90
2019-05-03T07:26:59.104Z,13.20
2019-05-03T07:29:29.823Z,13.23
2019-05-03T07:32:02.433Z,12.60
2019-05-03T07:34:35.034Z,13.17
2019-05-03T07:37:06.105Z,12.97
2019-05-03T07:39:37.057Z,12.90
2019-05-03T07:42:07.822Z,12.97
2019-05-03T07:44:39.047Z,13.00
2019-05-03T07:47:10.034Z,12.60
2019-05-03T07:49:40.816Z,11.97
2019-05-03T07:52:12.051Z,12.73
2019-05-03T07:54:44.981Z,13.37
2019-05-03T07:57:28.118Z,13.17
2019-05-03T07:59:59.259Z,13.10
2019-05-03T08:02:29.992Z,14.27
2019-05-03T08:05:00.814Z,14.67
2019-05-03T08:07:31.652Z,14.90
2019-05-03T08:10:05.285Z,14.50
2019-05-03T08:12:35.560Z,13.87
2019-05-03T08:15:06.453Z,14.60
2019-05-03T08:17:37.702Z,15.40
2019-05-03T08:20:08.617Z,15.27
2019-05-03T08:22:39.786Z,14.80
2019-05-03T08:25:11.906Z,15.20
2019-05-03T08:27:44.559Z,14.50
2019-05-03T08:30:20.530Z,14.53
2019-05-03T08:33:05.525Z,14.40
2019-05-03T08:35:44.685Z,14.17
2019-05-03T08:38:15.373Z,14.47
2019-05-03T08:40:47.860Z,15.40
2019-05-03T08:43:18.891Z,14.43
2019-05-03T08:45:49.883Z,14.23
2019-05-03T08:48:20.646Z,14.13
2019-05-03T08:50:51.773Z,13.70
2019-05-03T08:53:25.424Z,13.53
2019-05-03T08:55:55.471Z,13.43
2019-05-03T08:58:26.241Z,14.60
2019-05-03T09:00:57.031Z,15.30
2019-05-03T09:03:28.542Z,15.43
2019-05-03T09:05:59.550Z,15.57
2019-05-03T09:08:30.846Z,15.10
2019-05-03T09:11:11.024Z,14.10
2019-05-03T09:13:55.875Z,14.83
2019-05-03T09:16:26.974Z,14.17
2019-05-03T09:18:57.804Z,14.80
2019-05-03T09:21:29.030Z,15.20
2019-05-03T09:23:59.845Z,15.10
2019-05-03T09:26:30.604Z,14.37
2019-05-03T09:29:01.344Z,14.43
2019-05-03T09:31:32.339Z,14.13
2019-05-03T09:34:07.491Z,14.27
2019-05-03T09:36:35.686Z,13.60
2019-05-03T09:39:07.685Z,14.50
2019-05-03T09:41:38.625Z,13.33
2019-05-03T09:44:09.638Z,12.30
2019-05-03T09:46:40.445Z,12.70
2019-05-03T09:49:14.459Z,11.70
2019-05-03T09:51:44.463Z,12.23
2019-05-03T09:54:29.672Z,9.93
2019-05-03T09:57:00.830Z,8.97
2019-05-03T09:59:32.101Z,11.00
2019-05-03T10:02:04.810Z,10.73
2019-05-03T10:04:36.655Z,10.67
2019-05-03T10:07:08.605Z,9.47
2019-05-03T10:09:39.974Z,8.80
2019-05-03T10:12:16.311Z,9.00
2019-05-03T10:14:47.642Z,9.03
2019-05-03T10:17:52.397Z,9.40
2019-05-03T10:20:25.677Z,9.50
2019-05-03T10:22:59.615Z,7.47
2019-05-03T10:25:30.905Z,7.00
2019-05-03T10:28:01.873Z,6.60
2019-05-03T10:30:32.606Z,6.13
2019-05-03T10:33:15.602Z,5.40
2019-05-03T10:35:47.599Z,5.10
2019-05-03T10:38:18.654Z,5.63
2019-05-03T10:40:50.600Z,5.60
2019-05-03T10:43:21.649Z,5.40
2019-05-03T10:45:52.626Z,5.83
2019-05-03T10:48:24.843Z,6.00
2019-05-03T10:50:56.429Z,5.50
2019-05-03T10:53:35.227Z,5.77
2019-05-03T10:56:23.366Z,5.70
2019-05-03T10:59:00.285Z,5.60
2019-05-03T11:01:49.121Z,5.53
2019-05-03T11:04:20.137Z,5.20
2019-05-03T11:06:51.153Z,5.03
2019-05-03T11:09:21.894Z,4.93
2019-05-03T11:11:55.316Z,4.67
2019-05-03T11:14:25.810Z,4.73
2019-05-03T11:16:57.084Z,3.87
2019-05-03T11:19:28.312Z,3.53
2019-05-03T11:21:59.040Z,3.10
2019-05-03T11:24:29.779Z,4.20
2019-05-03T11:27:02.839Z,4.20
2019-05-03T11:29:35.553Z,3.90
2019-05-03T11:32:40.416Z,3.27
2019-05-03T11:35:15.933Z,6.30
2019-05-03T11:37:56.599Z,3.23
2019-05-03T11:40:27.348Z,3.20
2019-05-03T11:42:59.983Z,3.57
2019-05-03T11:45:30.836Z,3.30
2019-05-03T11:48:01.819Z,3.40
2019-05-03T11:50:34.774Z,3.70
2019-05-03T11:53:05.681Z,3.70
2019-05-03T11:55:36.596Z,3.43
2019-05-03T11:58:18.535Z,3.40
2019-05-03T12:01:10.800Z,3.10
2019-05-03T12:03:35.567Z,3.00
2019-05-03T12:06:06.493Z,3.00
2019-05-03T12:08:37.246Z,3.10
2019-05-03T12:11:07.992Z,3.20
2019-05-03T12:13:38.713Z,3.03
2019-05-03T12:16:17.129Z,3.20
2019-05-03T12:18:50.116Z,2.87
2019-05-03T12:21:18.082Z,2.93
2019-05-03T12:23:48.727Z,3.13
2019-05-03T12:26:20.834Z,3.03
2019-05-03T12:28:52.350Z,3.00
2019-05-03T12:31:33.345Z,2.90
2019-05-03T12:33:55.604Z,3.20
2019-05-03T12:36:44.986Z,5.77
2019-05-03T12:39:26.283Z,4.63
2019-05-03T12:41:48.629Z,3.50
2019-05-03T12:44:19.363Z,5.07
2019-05-03T12:46:50.107Z,4.30
2019-05-03T12:49:20.843Z,4.13
2019-05-03T12:51:51.848Z,3.73
2019-05-03T12:54:24.284Z,4.60
2019-05-03T12:56:56.065Z,5.40
2019-05-03T12:59:45.206Z,4.57
2019-05-03T13:02:38.749Z,2.97
2019-05-03T13:05:09.559Z,3.53
2019-05-03T13:07:45.628Z,3.20
2019-05-03T13:10:21.708Z,3.47
2019-05-03T13:12:53.041Z,3.90
2019-05-03T13:15:21.542Z,7.50
2019-05-03T13:17:52.267Z,5.80
2019-05-03T13:20:25.046Z,3.53
2019-05-03T13:22:55.957Z,4.67
2019-05-03T13:25:27.898Z,3.83
2019-05-03T13:27:58.850Z,5.40
2019-05-03T13:30:29.581Z,4.13
2019-05-03T13:33:02.619Z,3.80
2019-05-03T13:35:39.660Z,3.37
2019-05-03T13:38:41.577Z,3.10
2019-05-03T13:41:31.039Z,4.03
2019-05-03T13:44:25.495Z,4.00
2019-05-03T13:47:07.843Z,3.03
2019-05-03T13:50:19.966Z,3.30
2019-05-03T13:52:51.300Z,3.00
2019-05-03T13:55:22.106Z,3.87
2019-05-03T13:57:54.779Z,3.50
2019-05-03T14:00:25.566Z,3.63
2019-05-03T14:02:56.564Z,3.60
2019-05-03T14:05:28.263Z,3.50
2019-05-03T14:07:59.399Z,3.80
2019-05-03T14:10:30.616Z,3.50
2019-05-03T14:13:01.812Z,3.23
2019-05-03T14:15:34.819Z,3.10
2019-05-03T14:18:06.158Z,3.10
2019-05-03T14:20:55.066Z,3.30
2019-05-03T14:23:26.109Z,3.27
2019-05-03T14:25:57.177Z,3.23
2019-05-03T14:28:27.964Z,3.00
2019-05-03T14:30:58.779Z,3.47
2019-05-03T14:33:29.860Z,3.53
2019-05-03T14:36:00.826Z,3.70
2019-05-03T14:38:31.812Z,3.70
2019-05-03T14:41:05.370Z,3.37
2019-05-03T14:43:35.615Z,3.63
2019-05-03T14:46:06.420Z,3.60
2019-05-03T14:48:37.234Z,3.97
2019-05-03T14:51:08.262Z,3.70
2019-05-03T14:53:39.730Z,3.60
2019-05-03T14:56:15.390Z,3.50
2019-05-03T14:59:08.635Z,3.70
2019-05-03T15:01:44.711Z,3.67
2019-05-03T15:04:15.430Z,3.97
2019-05-03T15:06:46.418Z,3.70
2019-05-03T15:09:19.128Z,3.57
2019-05-03T15:11:50.751Z,3.90
2019-05-03T15:14:21.538Z,3.67
2019-05-03T15:16:52.532Z,3.73
2019-05-03T15:19:25.233Z,3.40
2019-05-03T15:21:55.704Z,4.10
2019-05-03T15:24:26.415Z,4.00
2019-05-03T15:26:57.232Z,4.10
2019-05-03T15:29:28.182Z,4.10
2019-05-03T15:31:58.911Z,4.30
2019-05-03T15:34:29.865Z,4.57
2019-05-03T15:37:00.819Z,3.90
2019-05-03T15:39:31.641Z,4.00
2019-05-03T15:42:02.633Z,3.67
2019-05-03T15:44:58.284Z,3.53
2019-05-03T15:47:48.265Z,3.83
2019-05-03T15:52:50.738Z,3.97
2019-05-03T15:55:21.477Z,3.63
2019-05-03T15:57:52.456Z,3.30
2019-05-03T16:00:24.478Z,3.87
2019-05-03T16:03:07.455Z,3.30
2019-05-03T16:05:29.144Z,3.60
2019-05-03T16:08:00.609Z,3.70
2019-05-03T16:10:31.548Z,3.50
2019-05-03T16:13:02.548Z,4.03
2019-05-03T16:15:35.049Z,3.50
2019-05-03T16:18:05.950Z,3.50
2019-05-03T16:20:39.445Z,3.40
2019-05-03T16:23:09.655Z,3.83
2019-05-03T16:25:40.625Z,3.27
2019-05-03T16:28:16.580Z,4.03
2019-05-03T16:30:55.562Z,4.50
2019-05-03T16:33:28.204Z,3.70
2019-05-03T16:35:59.016Z,3.70
2019-05-03T16:38:29.822Z,3.97
2019-05-03T16:41:01.283Z,3.47
2019-05-03T16:43:34.880Z,4.37
2019-05-03T16:46:05.965Z,4.30
2019-05-03T16:48:36.825Z,4.03
2019-05-03T16:51:08.089Z,4.10
2019-05-03T16:53:38.901Z,4.07
2019-05-03T16:56:09.959Z,4.10
2019-05-03T16:58:40.929Z,4.20
2019-05-03T17:01:13.566Z,3.70
2019-05-03T17:03:48.868Z,3.90
2019-05-03T17:06:26.881Z,4.00
2019-05-03T17:09:18.118Z,3.30
2019-05-03T17:12:36.573Z,3.43
2019-05-03T17:15:38.111Z,3.27
2019-05-03T17:18:29.535Z,3.60
2019-05-03T17:21:25.464Z,3.60
2019-05-03T17:24:06.320Z,3.30
2019-05-03T17:26:46.811Z,2.90
2019-05-03T17:29:30.992Z,3.13
2019-05-03T17:32:44.562Z,3.10
2019-05-03T17:35:25.728Z,2.90
2019-05-03T17:38:26.623Z,3.13
2019-05-03T17:41:32.191Z,3.00
2019-05-03T17:44:20.567Z,2.70
2019-05-03T17:47:04.289Z,3.13
2019-05-03T17:49:54.635Z,3.20
2019-05-03T17:52:49.353Z,3.17
2019-05-03T17:55:39.795Z,3.00
2019-05-03T17:58:30.164Z,2.90
2019-05-03T18:04:37.870Z,3.10
2019-05-03T18:07:34.806Z,2.93
2019-05-03T18:10:10.645Z,3.20
2019-05-03T18:12:49.542Z,3.13
2019-05-03T18:15:35.748Z,3.53
2019-05-03T18:18:15.759Z,3.10
2019-05-03T18:20:58.772Z,3.30
2019-05-03T18:23:39.071Z,3.80
2019-05-03T18:26:16.870Z,3.30
2019-05-03T18:29:08.030Z,3.73
2019-05-03T18:31:59.980Z,3.90
2019-05-03T18:34:32.517Z,4.20
2019-05-03T18:37:04.804Z,4.23
2019-05-03T18:39:35.715Z,3.90
2019-05-03T18:42:08.364Z,3.63
2019-05-03T18:44:46.743Z,3.80
2019-05-03T18:47:20.733Z,4.17
2019-05-03T18:49:51.828Z,3.27
2019-05-03T18:52:23.156Z,4.20
2019-05-03T18:54:55.182Z,3.73
2019-05-03T18:57:26.024Z,3.80
2019-05-03T18:59:56.984Z,3.73
2019-05-03T19:02:27.981Z,4.07
2019-05-03T19:04:58.959Z,3.90
2019-05-03T19:07:52.066Z,4.10
2019-05-03T19:10:30.973Z,4.80
2019-05-03T19:13:05.965Z,4.00
2019-05-03T19:15:36.795Z,4.40
2019-05-03T19:18:12.510Z,4.17
2019-05-03T19:20:45.447Z,4.30
2019-05-03T19:23:15.943Z,4.87
2019-05-03T19:25:49.572Z,5.33
2019-05-03T19:28:19.427Z,3.70
2019-05-03T19:30:50.578Z,4.30
2019-05-03T19:33:21.325Z,4.00
2019-05-03T19:35:54.919Z,4.40
2019-05-03T19:38:25.767Z,4.73
2019-05-03T19:40:56.579Z,4.93
2019-05-03T19:43:27.321Z,5.17
2019-05-03T19:45:58.059Z,5.40
2019-05-03T19:48:29.067Z,6.73
2019-05-03T19:50:59.789Z,20.17
2019-05-03T19:53:49.789Z,5.70
2019-05-03T19:56:21.615Z,5.27
2019-05-03T19:58:56.103Z,4.63
2019-05-03T20:01:36.730Z,4.80
2019-05-03T20:04:34.825Z,5.80
2019-05-03T20:07:31.306Z,7.37
2019-05-03T20:10:02.330Z,7.60
2019-05-03T20:12:35.273Z,5.30
2019-05-03T20:15:06.221Z,5.30
2019-05-03T20:17:36.941Z,4.50
2019-05-03T20:20:07.770Z,4.63
2019-05-03T20:22:38.573Z,4.70
2019-05-03T20:25:09.306Z,4.23
2019-05-03T20:27:40.402Z,4.87
2019-05-03T20:30:11.310Z,4.23
2019-05-03T20:32:42.027Z,4.93
2019-05-03T20:35:18.721Z,5.13
2019-05-03T20:37:45.740Z,5.00
2019-05-03T20:40:17.028Z,4.77
2019-05-03T20:43:01.100Z,4.30
2019-05-03T20:45:49.404Z,4.60
2019-05-03T20:48:21.086Z,4.87
2019-05-03T20:50:51.822Z,5.13
2019-05-03T20:53:22.769Z,5.47
2019-05-03T20:55:54.613Z,5.00
2019-05-03T20:58:25.585Z,5.47
2019-05-03T21:00:56.383Z,6.00
2019-05-03T21:03:27.109Z,6.27
2019-05-03T21:05:57.923Z,6.37
2019-05-03T21:08:28.651Z,6.40
2019-05-03T21:10:59.616Z,6.10
2019-05-03T21:13:39.989Z,6.20
2019-05-03T21:16:14.765Z,6.30
2019-05-03T21:19:04.872Z,7.27
2019-05-03T21:21:42.112Z,6.53
2019-05-03T21:24:17.851Z,7.70
2019-05-03T21:26:48.849Z,6.37
2019-05-03T21:29:19.814Z,5.70
2019-05-03T21:31:50.549Z,6.00
2019-05-03T21:34:21.353Z,5.20
2019-05-03T21:36:52.091Z,5.10
2019-05-03T21:39:24.714Z,5.37
2019-05-03T21:41:55.829Z,4.97
2019-05-03T21:44:30.648Z,4.50
2019-05-03T21:47:12.939Z,3.93
2019-05-03T21:49:44.739Z,4.30
2019-05-03T21:52:15.721Z,4.33
2019-05-03T21:54:46.452Z,4.17
2019-05-03T21:57:17.268Z,4.10
2019-05-03T21:59:48.008Z,4.73
2019-05-03T22:02:18.895Z,4.57
2019-05-03T22:04:49.973Z,4.30
2019-05-03T22:07:20.937Z,4.70
2019-05-03T22:09:51.877Z,4.80
2019-05-03T22:12:24.822Z,4.70
2019-05-03T22:15:04.964Z,4.87
2019-05-03T22:17:53.959Z,4.27
2019-05-03T22:20:37.345Z,4.10
2019-05-03T22:23:15.303Z,4.47
2019-05-03T22:25:46.050Z,4.20
2019-05-03T22:28:17.439Z,4.67
2019-05-03T22:30:48.391Z,4.70
2019-05-03T22:33:19.106Z,4.47
2019-05-03T22:35:50.088Z,4.30
2019-05-03T22:38:21.103Z,4.03
2019-05-03T22:40:51.823Z,4.30
2019-05-03T22:43:22.771Z,4.40
2019-05-03T22:45:54.807Z,4.67
2019-05-03T22:48:25.852Z,5.27
2019-05-03T22:50:56.583Z,4.90
2019-05-03T22:53:27.546Z,4.50
2019-05-03T22:55:58.380Z,4.97
2019-05-03T22:58:29.129Z,5.70
2019-05-03T23:00:59.841Z,6.10
2019-05-03T23:03:32.926Z,5.97
2019-05-03T23:06:05.087Z,5.73
2019-05-03T23:08:35.824Z,5.47
2019-05-03T23:11:06.638Z,5.80
2019-05-03T23:13:37.583Z,5.90
2019-05-03T23:16:08.643Z,5.53
2019-05-03T23:18:39.602Z,6.30
2019-05-03T23:21:15.997Z,4.63
2019-05-03T23:23:54.855Z,4.27
2019-05-03T23:26:26.086Z,4.53
2019-05-03T23:28:57.110Z,3.87
2019-05-03T23:31:27.850Z,4.00
2019-05-03T23:33:59.289Z,4.30
2019-05-03T23:36:33.665Z,4.60
2019-05-03T23:39:05.266Z,4.43
2019-05-03T23:41:36.274Z,4.73
2019-05-03T23:44:07.222Z,4.70
2019-05-03T23:46:45.456Z,5.00
2019-05-03T23:49:16.574Z,5.10
2019-05-03T23:51:52.337Z,4.87
2019-05-03T23:54:24.704Z,4.93
2019-05-03T23:56:55.856Z,5.30
2019-05-03T23:59:27.070Z,6.00
